createdAt,value
2023-05-10T00:00:45.680Z,3282.00
2023-05-10T00:01:45.719Z,3284.00
2023-05-10T00:02:45.761Z,3272.00
2023-05-10T00:03:45.774Z,3274.00
2023-05-10T00:04:45.703Z,3262.00
2023-05-10T00:05:45.695Z,3287.00
2023-05-10T00:06:45.681Z,3277.00
2023-05-10T00:07:45.896Z,3265.00
2023-05-10T00:08:45.738Z,3264.00
2023-05-10T00:09:45.720Z,3266.00
2023-05-10T00:10:45.728Z,3258.00
2023-05-10T00:11:45.727Z,3249.00
2023-05-10T00:12:45.741Z,3233.00
2023-05-10T00:13:45.725Z,3215.00
2023-05-10T00:14:45.725Z,3231.00
2023-05-10T00:15:45.721Z,3233.00
2023-05-10T00:16:45.734Z,3253.00
2023-05-10T00:17:45.791Z,3257.00
2023-05-10T00:18:45.738Z,3262.00
2023-05-10T00:19:45.719Z,3237.00
2023-05-10T00:20:45.717Z,3225.00
2023-05-10T00:21:45.735Z,3242.00
2023-05-10T00:22:45.714Z,3233.00
2023-05-10T00:23:45.762Z,3201.00
2023-05-10T00:24:45.722Z,3199.00
2023-05-10T00:25:45.750Z,3240.00
2023-05-10T00:26:45.754Z,3210.00
2023-05-10T00:27:45.746Z,3202.00
2023-05-10T00:28:45.775Z,3202.00
2023-05-10T00:29:45.756Z,3206.00
2023-05-10T00:30:45.797Z,3206.00
2023-05-10T00:31:45.846Z,3220.00
2023-05-10T00:32:45.857Z,3208.00
2023-05-10T00:33:45.817Z,3201.00
2023-05-10T00:34:45.785Z,3190.00
2023-05-10T00:35:45.800Z,3196.00
2023-05-10T00:36:45.802Z,3189.00
2023-05-10T00:37:45.805Z,3207.00
2023-05-10T00:38:45.844Z,3201.00
2023-05-10T00:39:45.819Z,3207.00
2023-05-10T00:40:45.823Z,3175.00
2023-05-10T00:41:45.842Z,3171.00
2023-05-10T00:42:45.831Z,3167.00
2023-05-10T00:43:45.855Z,3164.00
2023-05-10T00:44:45.844Z,3153.00
2023-05-10T00:45:45.887Z,3182.00
2023-05-10T00:46:45.844Z,3198.00
2023-05-10T00:47:45.868Z,3202.00
2023-05-10T00:48:45.885Z,3199.00
2023-05-10T00:49:45.869Z,3194.00
2023-05-10T00:50:45.904Z,3169.00
2023-05-10T00:51:45.888Z,3134.00
2023-05-10T00:52:45.899Z,3149.00
2023-05-10T00:53:45.900Z,3158.00
2023-05-10T00:54:45.913Z,3148.00
2023-05-10T00:55:45.900Z,3156.00
2023-05-10T00:56:45.926Z,3144.00
2023-05-10T00:57:45.918Z,3152.00
2023-05-10T00:58:45.933Z,3123.00
2023-05-10T00:59:45.969Z,3104.00
2023-05-10T01:00:45.941Z,3132.00
2023-05-10T01:01:45.989Z,3138.00
2023-05-10T01:02:46.020Z,3118.00
2023-05-10T01:03:45.963Z,3120.00
2023-05-10T01:04:46.014Z,3105.00
2023-05-10T01:05:45.979Z,3077.00
2023-05-10T01:06:45.997Z,3087.00
2023-05-10T01:07:45.998Z,3122.00
2023-05-10T01:08:45.999Z,3119.00
2023-05-10T01:09:46.007Z,3122.00
2023-05-10T01:10:46.025Z,3106.00
2023-05-10T01:11:46.009Z,3111.00
2023-05-10T01:12:46.121Z,3086.00
2023-05-10T01:13:46.063Z,3095.00
2023-05-10T01:14:46.059Z,3118.00
2023-05-10T01:15:46.085Z,3093.00
2023-05-10T01:16:46.063Z,3086.00
2023-05-10T01:17:46.118Z,3107.00
2023-05-10T01:18:46.088Z,3113.00
2023-05-10T01:19:46.089Z,3087.00
2023-05-10T01:20:46.100Z,3091.00
2023-05-10T01:21:46.113Z,3078.00
2023-05-10T01:22:46.117Z,3070.00
2023-05-10T01:23:46.116Z,3070.00
2023-05-10T01:24:46.142Z,3048.00
2023-05-10T01:25:46.168Z,3079.00
2023-05-10T01:26:46.141Z,3067.00
2023-05-10T01:27:46.160Z,3099.00
2023-05-10T01:28:46.194Z,3099.00
2023-05-10T01:29:46.188Z,3105.00
2023-05-10T01:30:46.213Z,3096.00
2023-05-10T01:31:46.222Z,3078.00
2023-05-10T01:32:46.284Z,3094.00
2023-05-10T01:33:46.262Z,3079.00
2023-05-10T01:34:46.254Z,3072.00
2023-05-10T01:35:46.257Z,3088.00
2023-05-10T01:36:46.265Z,3073.00
2023-05-10T01:37:46.348Z,3054.00
2023-05-10T01:38:46.301Z,3069.00
2023-05-10T01:39:46.316Z,3016.00
2023-05-10T01:40:46.316Z,3028.00
2023-05-10T01:41:46.313Z,3028.00
2023-05-10T01:42:46.326Z,3037.00
2023-05-10T01:43:46.317Z,3019.00
2023-05-10T01:44:46.321Z,2992.00
2023-05-10T01:45:46.361Z,2991.00
2023-05-10T01:46:46.402Z,2994.00
2023-05-10T01:47:46.402Z,3009.00
2023-05-10T01:48:46.388Z,2976.00
2023-05-10T01:49:46.397Z,2963.00
2023-05-10T01:50:46.411Z,2970.00
2023-05-10T01:51:46.426Z,2987.00
2023-05-10T01:52:46.482Z,2982.00
2023-05-10T01:53:46.447Z,2967.00
2023-05-10T01:54:46.473Z,2929.00
2023-05-10T01:55:46.532Z,2930.00
2023-05-10T01:56:46.532Z,2940.00
2023-05-10T01:57:46.558Z,2970.00
2023-05-10T01:58:46.575Z,2950.00
2023-05-10T01:59:46.578Z,2913.00
2023-05-10T02:00:46.590Z,2889.00
2023-05-10T02:01:46.596Z,2908.00
2023-05-10T02:02:46.634Z,2934.00
2023-05-10T02:03:46.685Z,2906.00
2023-05-10T02:04:46.612Z,2912.00
2023-05-10T02:05:46.665Z,2903.00
2023-05-10T02:06:46.671Z,2906.00
2023-05-10T02:07:46.668Z,2905.00
2023-05-10T02:08:46.685Z,2894.00
2023-05-10T02:09:46.697Z,2888.00
2023-05-10T02:10:46.723Z,2876.00
2023-05-10T02:11:46.726Z,2867.00
2023-05-10T02:12:46.751Z,2888.00
2023-05-10T02:13:46.751Z,2888.00
2023-05-10T02:14:46.812Z,2891.00
2023-05-10T02:15:46.813Z,2880.00
2023-05-10T02:16:46.847Z,2866.00
2023-05-10T02:17:46.878Z,2872.00
2023-05-10T02:18:46.877Z,2894.00
2023-05-10T02:19:46.920Z,2917.00
2023-05-10T02:20:46.939Z,2894.00
2023-05-10T02:21:46.933Z,2875.00
2023-05-10T02:22:46.966Z,2864.00
2023-05-10T02:23:46.983Z,2855.00
2023-05-10T02:24:46.993Z,2827.00
2023-05-10T02:25:47.105Z,2835.00
2023-05-10T02:26:47.027Z,2839.00
2023-05-10T02:27:47.038Z,2798.00
2023-05-10T02:28:47.061Z,2799.00
2023-05-10T02:29:47.103Z,2797.00
2023-05-10T02:30:47.117Z,2807.00
2023-05-10T02:31:47.167Z,2820.00
2023-05-10T02:32:47.183Z,2852.00
2023-05-10T02:33:47.178Z,2822.00
2023-05-10T02:34:47.165Z,2793.00
2023-05-10T02:35:47.196Z,2774.00
2023-05-10T02:36:47.310Z,2766.00
2023-05-10T02:37:47.238Z,2770.00
2023-05-10T02:38:47.273Z,2766.00
2023-05-10T02:39:47.277Z,2765.00
2023-05-10T02:40:47.282Z,2760.00
2023-05-10T02:41:47.314Z,2773.00
2023-05-10T02:42:47.332Z,2762.00
2023-05-10T02:43:47.331Z,2745.00
2023-05-10T02:44:47.356Z,2761.00
2023-05-10T02:45:47.397Z,2769.00
2023-05-10T02:46:47.394Z,2761.00
2023-05-10T02:47:47.453Z,2758.00
2023-05-10T02:48:47.420Z,2736.00
2023-05-10T02:49:47.483Z,2732.00
2023-05-10T02:50:47.499Z,2724.00
2023-05-10T02:51:47.506Z,2731.00
2023-05-10T02:52:47.526Z,2724.00
2023-05-10T02:53:47.543Z,2695.00
2023-05-10T02:54:47.597Z,2696.00
2023-05-10T02:55:47.610Z,2670.00
2023-05-10T02:56:47.622Z,2688.00
2023-05-10T02:57:47.653Z,2702.00
2023-05-10T02:58:47.680Z,2694.00
2023-05-10T02:59:47.740Z,2701.00
2023-05-10T03:00:47.729Z,2666.00
2023-05-10T03:01:47.822Z,2667.00
2023-05-10T03:02:47.815Z,2666.00
2023-05-10T03:03:47.791Z,2655.00
2023-05-10T03:04:47.840Z,2656.00
2023-05-10T03:05:47.857Z,2654.00
2023-05-10T03:06:47.850Z,2654.00
2023-05-10T03:07:47.879Z,2642.00
2023-05-10T03:08:47.896Z,2621.00
2023-05-10T03:09:47.910Z,2658.00
2023-05-10T03:10:47.930Z,2650.00
2023-05-10T03:11:47.972Z,2677.00
2023-05-10T03:12:48.035Z,2672.00
2023-05-10T03:13:48.002Z,2653.00
2023-05-10T03:14:47.998Z,2636.00
2023-05-10T03:15:48.079Z,2638.00
2023-05-10T03:16:48.182Z,2653.00
2023-05-10T03:17:48.092Z,2683.00
2023-05-10T03:18:48.084Z,2659.00
2023-05-10T03:19:48.097Z,2635.00
2023-05-10T03:20:48.121Z,2646.00
2023-05-10T03:21:48.206Z,2644.00
2023-05-10T03:22:48.154Z,2618.00
2023-05-10T03:23:48.178Z,2623.00
2023-05-10T03:24:48.215Z,2620.00
2023-05-10T03:25:48.229Z,2633.00
2023-05-10T03:26:48.250Z,2647.00
2023-05-10T03:27:48.252Z,2621.00
2023-05-10T03:28:48.274Z,2609.00
2023-05-10T03:29:48.299Z,2605.00
2023-05-10T03:30:48.315Z,2604.00
2023-05-10T03:31:48.441Z,2628.00
2023-05-10T03:32:48.373Z,2652.00
2023-05-10T03:33:48.394Z,2668.00
2023-05-10T03:34:48.423Z,2674.00
2023-05-10T03:35:48.440Z,2667.00
2023-05-10T03:36:48.451Z,2655.00
2023-05-10T03:37:48.481Z,2637.00
2023-05-10T03:38:48.487Z,2645.00
2023-05-10T03:39:48.527Z,2652.00
2023-05-10T03:40:48.564Z,2645.00
2023-05-10T03:41:48.551Z,2650.00
2023-05-10T03:42:48.580Z,2619.00
2023-05-10T03:43:48.601Z,2641.00
2023-05-10T03:44:48.630Z,2648.00
2023-05-10T03:45:48.638Z,2640.00
2023-05-10T03:46:48.696Z,2657.00
2023-05-10T03:47:48.694Z,2650.00
2023-05-10T03:48:48.719Z,2642.00
2023-05-10T03:49:48.735Z,2653.00
2023-05-10T03:50:48.761Z,2636.00
2023-05-10T03:51:48.823Z,2618.00
2023-05-10T03:52:48.782Z,2609.00
2023-05-10T03:53:48.798Z,2596.00
2023-05-10T03:54:48.837Z,2628.00
2023-05-10T03:55:48.841Z,2595.00
2023-05-10T03:56:48.884Z,2598.00
2023-05-10T03:57:48.884Z,2619.00
2023-05-10T03:58:48.908Z,2626.00
2023-05-10T03:59:48.924Z,2606.00
2023-05-10T04:00:48.928Z,2579.00
2023-05-10T04:01:48.960Z,2571.00
2023-05-10T04:02:49.036Z,2583.00
2023-05-10T04:03:49.115Z,2575.00
2023-05-10T04:04:49.016Z,2581.00
2023-05-10T04:05:49.041Z,2555.00
2023-05-10T04:06:49.086Z,2548.00
2023-05-10T04:07:49.104Z,2552.00
2023-05-10T04:08:49.121Z,2571.00
2023-05-10T04:09:49.115Z,2551.00
2023-05-10T04:10:49.162Z,2558.00
2023-05-10T04:11:49.184Z,2555.00
2023-05-10T04:12:49.237Z,2540.00
2023-05-10T04:13:49.208Z,2516.00
2023-05-10T04:14:49.221Z,2521.00
2023-05-10T04:15:49.251Z,2520.00
2023-05-10T04:16:49.307Z,2496.00
2023-05-10T04:17:49.311Z,2478.00
2023-05-10T04:18:49.332Z,2465.00
2023-05-10T04:19:49.342Z,2461.00
2023-05-10T04:20:49.365Z,2439.00
2023-05-10T04:21:49.380Z,2465.00
2023-05-10T04:22:49.411Z,2494.00
2023-05-10T04:23:49.418Z,2502.00
2023-05-10T04:24:49.423Z,2496.00
2023-05-10T04:25:49.447Z,2485.00
2023-05-10T04:26:49.463Z,2493.00
2023-05-10T04:27:49.506Z,2478.00
2023-05-10T04:28:49.523Z,2478.00
2023-05-10T04:29:49.546Z,2492.00
2023-05-10T04:30:49.614Z,2461.00
2023-05-10T04:31:49.585Z,2470.00
2023-05-10T04:32:49.631Z,2467.00
2023-05-10T04:33:49.630Z,2454.00
2023-05-10T04:34:49.625Z,2437.00
2023-05-10T04:35:49.646Z,2455.00
2023-05-10T04:36:49.670Z,2447.00
2023-05-10T04:37:49.688Z,2432.00
2023-05-10T04:38:49.707Z,2431.00
2023-05-10T04:39:49.739Z,2428.00
2023-05-10T04:40:49.768Z,2461.00
2023-05-10T04:41:49.801Z,2460.00
2023-05-10T04:42:49.819Z,2428.00
2023-05-10T04:43:49.857Z,2423.00
2023-05-10T04:44:49.855Z,2413.00
2023-05-10T04:45:49.863Z,2438.00
2023-05-10T04:46:49.940Z,2444.00
2023-05-10T04:47:49.987Z,2436.00
2023-05-10T04:48:49.939Z,2449.00
2023-05-10T04:49:49.963Z,2446.00
2023-05-10T04:50:49.977Z,2449.00
2023-05-10T04:51:50.002Z,2449.00
2023-05-10T04:52:50.034Z,2477.00
2023-05-10T04:54:01.626Z,2468.00
2023-05-10T04:54:51.039Z,2469.00
2023-05-10T04:55:50.043Z,2471.00
2023-05-10T04:56:50.040Z,2483.00
2023-05-10T04:57:50.016Z,2493.00
2023-05-10T04:58:50.014Z,2506.00
2023-05-10T04:59:50.620Z,2547.00
2023-05-10T05:00:50.013Z,2520.00
2023-05-10T05:01:50.024Z,2500.00
2023-05-10T05:02:49.989Z,2514.00
2023-05-10T05:03:50.030Z,2541.00
2023-05-10T05:04:49.984Z,2509.00
2023-05-10T05:05:49.964Z,2494.00
2023-05-10T05:07:49.943Z,2501.00
2023-05-10T05:08:49.958Z,2522.00
2023-05-10T05:09:49.934Z,2554.00
2023-05-10T05:10:49.924Z,2576.00
2023-05-10T05:11:49.917Z,2601.00
2023-05-10T05:12:49.936Z,2609.00
2023-05-10T05:13:49.958Z,2666.00
2023-05-10T05:14:49.976Z,2694.00
2023-05-10T05:15:50.017Z,2698.00
2023-05-10T05:16:49.988Z,2697.00
2023-05-10T05:17:50.054Z,2758.00
2023-05-10T05:18:50.074Z,2770.00
2023-05-10T05:19:50.060Z,2802.00
2023-05-10T05:20:50.091Z,2806.00
2023-05-10T05:21:50.107Z,2793.00
2023-05-10T05:22:50.121Z,2791.00
2023-05-10T05:23:50.165Z,2773.00
2023-05-10T05:24:50.171Z,2776.00
2023-05-10T05:25:50.204Z,2754.00
2023-05-10T05:26:50.192Z,2781.00
2023-05-10T05:27:50.228Z,2809.00
2023-05-10T05:28:50.213Z,3551.00
2023-05-10T05:29:50.264Z,3613.00
2023-05-10T05:30:50.229Z,3658.00
2023-05-10T05:31:50.262Z,3588.00
2023-05-10T05:32:50.347Z,3563.00
2023-05-10T05:33:50.833Z,3484.00
2023-05-10T05:34:50.249Z,3462.00
2023-05-10T05:35:50.267Z,3468.00
2023-05-10T05:36:50.276Z,3485.00
2023-05-10T05:37:50.285Z,3484.00
2023-05-10T05:38:50.303Z,3459.00
2023-05-10T05:39:50.363Z,3449.00
2023-05-10T05:40:50.383Z,3469.00
2023-05-10T05:41:50.394Z,3503.00
2023-05-10T05:42:50.381Z,3561.00
2023-05-10T05:43:50.404Z,3622.00
2023-05-10T05:44:50.400Z,3505.00
2023-05-10T05:45:50.456Z,3338.00
2023-05-10T05:46:50.412Z,3288.00
2023-05-10T05:47:50.421Z,3279.00
2023-05-10T05:48:50.443Z,3285.00
2023-05-10T05:49:50.850Z,3356.00
2023-05-10T05:50:50.433Z,2951.00
2023-05-10T05:51:50.476Z,2764.00
2023-05-10T05:52:50.541Z,2869.00
2023-05-10T05:53:50.588Z,2938.00
2023-05-10T05:54:50.677Z,3001.00
2023-05-10T05:55:50.651Z,3057.00
2023-05-10T05:56:50.677Z,3108.00
2023-05-10T05:57:50.691Z,3071.00
2023-05-10T05:58:50.695Z,3054.00
2023-05-10T05:59:50.754Z,3118.00
2023-05-10T06:00:50.840Z,3228.00
2023-05-10T06:01:50.858Z,3313.00
2023-05-10T06:02:50.940Z,3405.00
2023-05-10T06:03:53.186Z,3494.00
2023-05-10T06:04:51.068Z,3562.00
2023-05-10T06:05:51.099Z,3610.00
2023-05-10T06:06:51.093Z,3666.00
2023-05-10T06:07:51.095Z,3700.00
2023-05-10T06:08:51.123Z,3740.00
2023-05-10T06:09:51.157Z,3780.00
2023-05-10T06:10:51.136Z,3807.00
2023-05-10T06:11:51.168Z,3821.00
2023-05-10T06:12:51.305Z,3848.00
2023-05-10T06:13:51.279Z,3857.00
2023-05-10T06:14:51.354Z,3856.00
2023-05-10T06:15:51.371Z,3855.00
2023-05-10T06:16:51.523Z,3863.00
2023-05-10T06:17:51.536Z,3872.00
2023-05-10T06:18:51.561Z,3874.00
2023-05-10T06:19:51.869Z,3903.00
2023-05-10T06:20:51.685Z,3934.00
2023-05-10T06:21:53.727Z,3944.00
2023-05-10T06:22:51.772Z,3981.00
2023-05-10T06:23:51.991Z,3985.00
2023-05-10T06:24:51.897Z,3989.00
2023-05-10T06:25:51.933Z,3982.00
2023-05-10T06:26:52.002Z,3960.00
2023-05-10T06:27:53.873Z,3828.00
2023-05-10T06:28:52.084Z,3716.00
2023-05-10T06:29:56.460Z,3535.00
2023-05-10T06:30:53.147Z,3519.00
2023-05-10T06:31:52.245Z,3428.00
2023-05-10T06:32:52.122Z,3436.00
2023-05-10T06:33:52.939Z,3484.00
2023-05-10T06:34:52.392Z,3519.00
2023-05-10T06:35:52.117Z,3590.00
2023-05-10T06:36:52.475Z,3660.00
2023-05-10T06:37:52.245Z,3718.00
2023-05-10T06:38:52.293Z,3772.00
2023-05-10T06:39:52.361Z,3810.00
2023-05-10T06:40:52.409Z,3824.00
2023-05-10T06:41:52.445Z,3857.00
2023-05-10T06:42:52.483Z,3866.00
2023-05-10T06:43:52.532Z,3862.00
2023-05-10T06:44:52.599Z,3858.00
2023-05-10T06:45:52.712Z,3818.00
2023-05-10T06:46:52.666Z,3834.00
2023-05-10T06:47:52.775Z,3836.00
2023-05-10T06:48:52.752Z,3811.00
2023-05-10T06:49:52.785Z,3781.00
2023-05-10T06:50:52.835Z,3773.00
2023-05-10T06:51:52.870Z,3790.00
2023-05-10T06:52:53.254Z,3800.00
2023-05-10T06:53:53.016Z,3800.00
2023-05-10T06:54:52.961Z,3808.00
2023-05-10T06:55:52.996Z,3822.00
2023-05-10T06:56:53.038Z,3828.00
2023-05-10T06:57:53.049Z,3844.00
2023-05-10T06:58:53.108Z,3864.00
2023-05-10T06:59:53.110Z,3863.00
2023-05-10T07:00:53.165Z,3877.00
2023-05-10T07:01:53.198Z,3903.00
2023-05-10T07:02:53.202Z,3905.00
2023-05-10T07:03:53.226Z,3921.00
2023-05-10T07:04:53.280Z,3919.00
2023-05-10T07:05:53.246Z,3940.00
2023-05-10T07:06:53.254Z,3963.00
2023-05-10T07:07:53.267Z,3958.00
2023-05-10T07:08:53.297Z,3962.00
2023-05-10T07:09:53.310Z,3972.00
2023-05-10T07:10:53.302Z,3984.00
2023-05-10T07:11:53.878Z,3982.00
2023-05-10T07:12:53.548Z,3991.00
2023-05-10T07:13:53.339Z,4004.00
2023-05-10T07:14:53.363Z,4012.00
2023-05-10T07:15:53.411Z,4010.00
2023-05-10T07:16:53.384Z,4004.00
2023-05-10T07:17:53.575Z,3997.00
2023-05-10T07:18:53.390Z,3931.00
2023-05-10T07:19:53.393Z,3932.00
2023-05-10T07:20:53.490Z,3889.00
2023-05-10T07:21:53.405Z,3870.00
2023-05-10T07:22:53.422Z,3884.00
2023-05-10T07:23:53.430Z,3895.00
2023-05-10T07:24:53.428Z,3880.00
2023-05-10T07:25:53.421Z,3867.00
2023-05-10T07:26:53.892Z,3732.00
2023-05-10T07:27:53.432Z,3755.00
2023-05-10T07:28:53.437Z,3404.00
2023-05-10T07:29:53.472Z,3091.00
2023-05-10T07:30:53.512Z,2845.00
2023-05-10T07:31:55.292Z,2775.00
2023-05-10T07:32:53.577Z,2796.00
2023-05-10T07:33:53.518Z,2851.00
2023-05-10T07:34:53.485Z,2930.00
2023-05-10T07:35:53.498Z,2975.00
2023-05-10T07:36:53.498Z,2951.00
2023-05-10T07:37:53.482Z,3038.00
2023-05-10T07:38:53.461Z,2960.00
2023-05-10T07:39:53.451Z,3125.00
2023-05-10T07:40:53.464Z,3239.00
2023-05-10T07:41:53.449Z,3308.00
2023-05-10T07:42:53.459Z,3361.00
2023-05-10T07:43:53.453Z,3404.00
2023-05-10T07:44:53.439Z,3440.00
2023-05-10T07:45:56.129Z,3457.00
2023-05-10T07:46:53.441Z,3458.00
2023-05-10T07:47:53.468Z,3464.00
2023-05-10T07:48:53.416Z,3480.00
2023-05-10T07:49:53.884Z,3521.00
2023-05-10T07:50:53.377Z,3519.00
2023-05-10T07:51:53.394Z,3551.00
2023-05-10T07:52:53.380Z,3510.00
2023-05-10T07:53:53.359Z,3529.00
2023-05-10T07:54:53.402Z,3509.00
2023-05-10T07:55:53.368Z,3521.00
2023-05-10T07:56:53.401Z,3545.00
2023-05-10T07:57:53.361Z,3533.00
2023-05-10T07:58:53.326Z,3544.00
2023-05-10T07:59:53.414Z,3595.00
2023-05-10T08:00:53.325Z,3627.00
2023-05-10T08:01:53.361Z,3651.00
2023-05-10T08:02:53.398Z,3617.00
2023-05-10T08:03:53.372Z,3616.00
2023-05-10T08:04:53.309Z,3648.00
2023-05-10T08:05:53.271Z,3649.00
2023-05-10T08:06:53.290Z,3661.00
2023-05-10T08:07:53.274Z,3677.00
2023-05-10T08:08:53.269Z,3703.00
2023-05-10T08:09:53.243Z,3731.00
2023-05-10T08:10:53.252Z,3683.00
2023-05-10T08:11:53.234Z,3699.00
2023-05-10T08:12:53.244Z,3707.00
2023-05-10T08:13:53.209Z,3757.00
2023-05-10T08:14:53.396Z,3797.00
2023-05-10T08:15:53.253Z,3809.00
2023-05-10T08:16:53.210Z,3817.00
2023-05-10T08:17:53.232Z,3819.00
2023-05-10T08:18:53.263Z,3803.00
2023-05-10T08:19:53.424Z,3803.00
2023-05-10T08:20:53.178Z,3546.00
2023-05-10T08:21:53.165Z,3217.00
2023-05-10T08:22:53.167Z,3023.00
2023-05-10T08:23:53.148Z,2872.00
2023-05-10T08:24:53.432Z,2742.00
2023-05-10T08:25:53.140Z,2639.00
2023-05-10T08:26:53.147Z,2504.00
2023-05-10T08:27:53.135Z,2485.00
2023-05-10T08:28:53.114Z,2415.00
2023-05-10T08:29:53.125Z,2327.00
2023-05-10T08:30:53.303Z,2262.00
2023-05-10T08:31:53.121Z,2340.00
2023-05-10T08:32:53.115Z,2331.00
2023-05-10T08:33:53.085Z,2353.00
2023-05-10T08:34:53.072Z,2206.00
2023-05-10T08:35:53.070Z,2205.00
2023-05-10T08:36:53.059Z,2472.00
2023-05-10T08:37:53.045Z,2629.00
2023-05-10T08:38:53.048Z,2720.00
2023-05-10T08:39:53.406Z,2826.00
2023-05-10T08:40:53.032Z,2911.00
2023-05-10T08:41:53.028Z,2982.00
2023-05-10T08:42:53.010Z,3023.00
2023-05-10T08:43:53.004Z,3052.00
2023-05-10T08:44:53.426Z,3038.00
2023-05-10T08:45:53.001Z,3051.00
2023-05-10T08:46:53.040Z,3099.00
2023-05-10T08:47:52.998Z,3096.00
2023-05-10T08:48:52.976Z,3110.00
2023-05-10T08:49:53.009Z,3106.00
2023-05-10T08:50:52.962Z,3134.00
2023-05-10T08:51:52.988Z,3142.00
2023-05-10T08:52:52.974Z,3160.00
2023-05-10T08:53:52.927Z,3200.00
2023-05-10T08:54:53.114Z,3222.00
2023-05-10T08:55:53.016Z,3208.00
2023-05-10T08:56:53.088Z,3192.00
2023-05-10T08:57:53.160Z,3214.00
2023-05-10T08:58:53.205Z,3242.00
2023-05-10T08:59:53.273Z,3228.00
2023-05-10T09:00:53.335Z,3244.00
2023-05-10T09:01:53.337Z,3219.00
2023-05-10T09:02:53.405Z,3175.00
2023-05-10T09:03:53.481Z,3191.00
2023-05-10T09:04:53.727Z,3177.00
2023-05-10T09:05:53.993Z,3182.00
2023-05-10T09:06:53.601Z,3174.00
2023-05-10T09:07:53.631Z,3187.00
2023-05-10T09:08:53.689Z,3145.00
2023-05-10T09:09:53.739Z,3173.00
2023-05-10T09:10:53.933Z,3175.00
2023-05-10T09:11:53.814Z,3136.00
2023-05-10T09:12:53.862Z,3104.00
2023-05-10T09:13:53.923Z,3104.00
2023-05-10T09:14:53.966Z,3136.00
2023-05-10T09:15:54.440Z,3110.00
2023-05-10T09:16:54.095Z,3112.00
2023-05-10T09:17:54.139Z,3097.00
2023-05-10T09:18:54.143Z,3068.00
2023-05-10T09:19:54.188Z,3044.00
2023-05-10T09:20:54.441Z,3090.00
2023-05-10T09:21:54.342Z,3063.00
2023-05-10T09:22:54.334Z,3024.00
2023-05-10T09:23:54.364Z,3046.00
2023-05-10T09:24:54.410Z,3021.00
2023-05-10T09:25:54.938Z,3008.00
2023-05-10T09:26:54.494Z,3019.00
2023-05-10T09:27:54.534Z,3016.00
2023-05-10T09:28:54.575Z,3025.00
2023-05-10T09:29:54.602Z,3031.00
2023-05-10T09:30:54.731Z,3037.00
2023-05-10T09:31:54.707Z,3009.00
2023-05-10T09:32:54.798Z,2950.00
2023-05-10T09:33:54.789Z,2636.00
2023-05-10T09:34:54.828Z,2222.00
2023-05-10T09:35:54.947Z,1935.00
2023-05-10T09:36:54.937Z,1733.00
2023-05-10T09:37:54.946Z,1552.00
2023-05-10T09:38:54.927Z,1390.00
2023-05-10T09:39:54.938Z,1296.00
2023-05-10T09:40:55.475Z,1249.00
2023-05-10T09:41:54.986Z,1266.00
2023-05-10T09:42:54.992Z,1251.00
2023-05-10T09:43:54.999Z,1214.00
2023-05-10T09:44:55.012Z,1207.00
2023-05-10T09:45:55.475Z,1311.00
2023-05-10T09:46:55.074Z,1435.00
2023-05-10T09:47:55.129Z,1512.00
2023-05-10T09:48:55.115Z,1611.00
2023-05-10T09:49:55.130Z,1685.00
2023-05-10T09:50:55.151Z,1760.00
2023-05-10T09:51:55.180Z,1856.00
2023-05-10T09:52:55.167Z,1935.00
2023-05-10T09:53:55.178Z,2092.00
2023-05-10T09:54:55.182Z,2155.00
2023-05-10T09:55:55.252Z,2278.00
2023-05-10T09:56:55.266Z,2378.00
2023-05-10T09:57:55.346Z,2469.00
2023-05-10T09:58:55.398Z,2538.00
2023-05-10T09:59:55.453Z,2593.00
2023-05-10T10:00:55.478Z,2621.00
2023-05-10T10:01:55.607Z,2661.00
2023-05-10T10:02:55.661Z,2683.00
2023-05-10T10:03:55.627Z,2697.00
2023-05-10T10:04:55.690Z,2724.00
2023-05-10T10:05:55.690Z,2759.00
2023-05-10T10:06:55.699Z,2778.00
2023-05-10T10:07:55.721Z,2765.00
2023-05-10T10:08:56.863Z,2798.00
2023-05-10T10:09:55.799Z,2825.00
2023-05-10T10:10:55.795Z,2841.00
2023-05-10T10:11:55.825Z,2847.00
2023-05-10T10:12:55.843Z,2870.00
2023-05-10T10:13:55.867Z,2881.00
2023-05-10T10:14:55.858Z,2903.00
2023-05-10T10:15:55.984Z,2902.00
2023-05-10T10:17:07.376Z,2883.00
2023-05-10T10:17:56.979Z,2884.00
2023-05-10T10:18:55.955Z,2873.00
2023-05-10T10:19:55.887Z,2862.00
2023-05-10T10:20:55.865Z,2836.00
2023-05-10T10:21:55.853Z,2693.00
2023-05-10T10:22:55.883Z,2653.00
2023-05-10T10:23:55.846Z,2718.00
2023-05-10T10:24:55.840Z,2795.00
2023-05-10T10:25:55.955Z,2836.00
2023-05-10T10:26:55.837Z,2935.00
2023-05-10T10:27:55.835Z,2986.00
2023-05-10T10:28:55.811Z,3060.00
2023-05-10T10:29:55.813Z,3100.00
2023-05-10T10:30:55.825Z,3150.00
2023-05-10T10:31:55.905Z,3161.00
2023-05-10T10:32:55.854Z,3193.00
2023-05-10T10:33:55.794Z,3190.00
2023-05-10T10:34:55.790Z,3159.00
2023-05-10T10:35:55.993Z,3193.00
2023-05-10T10:36:55.769Z,3216.00
2023-05-10T10:37:55.778Z,3198.00
2023-05-10T10:38:55.757Z,3195.00
2023-05-10T10:39:55.774Z,3214.00
2023-05-10T10:40:55.753Z,3205.00
2023-05-10T10:41:55.862Z,3095.00
2023-05-10T10:42:55.763Z,3204.00
2023-05-10T10:43:55.720Z,3251.00
2023-05-10T10:44:55.700Z,3253.00
2023-05-10T10:45:55.720Z,3340.00
2023-05-10T10:46:55.729Z,3398.00
2023-05-10T10:47:55.751Z,3458.00
2023-05-10T10:48:55.700Z,3510.00
2023-05-10T10:49:55.681Z,3495.00
2023-05-10T10:50:55.705Z,3509.00
2023-05-10T10:51:55.677Z,3478.00
2023-05-10T10:52:55.673Z,3464.00
2023-05-10T10:53:55.657Z,3434.00
2023-05-10T10:54:55.632Z,3424.00
2023-05-10T10:55:55.639Z,3406.00
2023-05-10T10:56:55.620Z,3381.00
2023-05-10T10:57:55.627Z,3336.00
2023-05-10T10:58:55.656Z,3339.00
2023-05-10T10:59:55.710Z,3348.00
2023-05-10T11:00:55.734Z,3328.00
2023-05-10T11:01:55.767Z,3250.00
2023-05-10T11:02:55.810Z,3245.00
2023-05-10T11:03:55.889Z,3223.00
2023-05-10T11:04:55.862Z,3215.00
2023-05-10T11:05:55.886Z,3189.00
2023-05-10T11:06:55.924Z,3191.00
2023-05-10T11:07:55.988Z,3217.00
2023-05-10T11:08:56.007Z,3231.00
2023-05-10T11:09:56.067Z,3216.00
2023-05-10T11:10:56.117Z,3066.00
2023-05-10T11:11:56.400Z,3000.00
2023-05-10T11:12:56.184Z,3043.00
2023-05-10T11:13:56.319Z,3022.00
2023-05-10T11:14:56.257Z,2963.00
2023-05-10T11:15:56.296Z,2781.00
2023-05-10T11:16:56.384Z,2650.00
2023-05-10T11:17:56.406Z,2555.00
2023-05-10T11:18:56.432Z,2478.00
2023-05-10T11:19:56.333Z,2261.00
2023-05-10T11:20:56.332Z,2111.00
2023-05-10T11:21:56.337Z,2160.00
2023-05-10T11:22:56.333Z,2064.00
2023-05-10T11:23:56.352Z,2014.00
2023-05-10T11:24:56.356Z,1939.00
2023-05-10T11:25:56.412Z,1885.00
2023-05-10T11:26:56.399Z,1909.00
2023-05-10T11:27:56.438Z,1838.00
2023-05-10T11:28:56.449Z,1758.00
2023-05-10T11:29:56.476Z,1743.00
2023-05-10T11:30:56.536Z,1669.00
2023-05-10T11:31:56.527Z,1628.00
2023-05-10T11:32:56.573Z,1630.00
2023-05-10T11:33:56.601Z,1586.00
2023-05-10T11:34:56.626Z,1540.00
2023-05-10T11:35:56.663Z,1529.00
2023-05-10T11:36:56.721Z,1534.00
2023-05-10T11:37:56.755Z,1563.00
2023-05-10T11:38:56.808Z,1576.00
2023-05-10T11:39:56.828Z,1563.00
2023-05-10T11:40:56.906Z,1568.00
2023-05-10T11:41:56.926Z,1582.00
2023-05-10T11:42:56.949Z,1642.00
2023-05-10T11:43:56.982Z,1631.00
2023-05-10T11:44:57.014Z,1663.00
2023-05-10T11:45:57.109Z,1689.00
2023-05-10T11:46:57.106Z,1735.00
2023-05-10T11:47:57.181Z,1755.00
2023-05-10T11:48:57.195Z,1739.00
2023-05-10T11:49:57.216Z,1791.00
2023-05-10T11:50:57.278Z,1812.00
2023-05-10T11:51:57.368Z,1825.00
2023-05-10T11:52:57.350Z,1893.00
2023-05-10T11:53:57.391Z,1878.00
2023-05-10T11:54:57.425Z,1874.00
2023-05-10T11:55:57.444Z,1881.00
2023-05-10T11:56:57.491Z,1892.00
2023-05-10T11:57:57.538Z,1910.00
2023-05-10T11:58:57.597Z,1944.00
2023-05-10T11:59:57.612Z,1923.00
2023-05-10T12:00:57.669Z,1954.00
2023-05-10T12:01:57.684Z,1977.00
2023-05-10T12:02:57.795Z,1982.00
2023-05-10T12:03:57.960Z,1995.00
2023-05-10T12:04:57.847Z,1957.00
2023-05-10T12:05:57.994Z,1913.00
2023-05-10T12:06:58.007Z,1898.00